Time;durP1;ratioP1;P1;durP2;ratioP2;P2;SDS_P1;SDS_P2;PMS_P1;PMS_P2;Temp;Humidity;BMP_temperature;BMP_pressure;BME280_temperature;BME280_humidity;BME280_pressure;Samples;Min_cycle;Max_cycle;Signal;HPM_P1;HPM_P2
2024/01/20 00:01:35;;;;;;;23.40;8.03;;;;;;;;;;4915414;29;20683;-53
2024/01/20 00:04:01;;;;;;;21.47;7.57;;;;;;;;;;4896889;29;20192;-49
2024/01/20 00:06:27;;;;;;;22.90;7.70;;;;;;;;;;4896144;29;20264;-49
2024/01/20 00:08:55;;;;;;;30.77;9.87;;;;;;;;;;4907679;29;20995;-50
2024/01/20 00:11:21;;;;;;;30.27;9.33;;;;;;;;;;4915449;29;20645;-49
2024/01/20 00:13:47;;;;;;;27.10;9.17;;;;;;;;;;4913599;29;21074;-50
2024/01/20 00:16:13;;;;;;;25.57;9.00;;;;;;;;;;4903536;29;20508;-52
2024/01/20 00:18:39;;;;;;;24.47;8.77;;;;;;;;;;4913090;29;20299;-53
2024/01/20 00:21:05;;;;;;;25.27;9.87;;;;;;;;;;4911466;29;20192;-52
2024/01/20 00:23:31;;;;;;;30.33;9.73;;;;;;;;;;4896503;29;20206;-51
2024/01/20 00:25:57;;;;;;;28.20;9.57;;;;;;;;;;4911113;29;20481;-52
2024/01/20 00:28:23;;;;;;;24.60;9.87;;;;;;;;;;4896401;29;20313;-52
2024/01/20 00:30:49;;;;;;;24.67;9.33;;;;;;;;;;4913703;29;20242;-51
2024/01/20 00:33:15;;;;;;;25.73;8.87;;;;;;;;;;4909983;29;20193;-49
2024/01/20 00:35:42;;;;;;;26.50;9.30;;;;;;;;;;4904401;29;20193;-53
2024/01/20 00:38:08;;;;;;;26.40;9.17;;;;;;;;;;4907514;29;20226;-50
2024/01/20 00:40:35;;;;;;;23.13;8.70;;;;;;;;;;4914861;29;20430;-50
2024/01/20 00:43:01;;;;;;;25.53;8.77;;;;;;;;;;4907421;29;20795;-52
2024/01/20 00:45:26;;;;;;;21.53;8.10;;;;;;;;;;4907498;29;20501;-48
2024/01/20 00:47:52;;;;;;;21.77;8.30;;;;;;;;;;4903767;29;20232;-50
2024/01/20 00:50:18;;;;;;;28.27;9.63;;;;;;;;;;4901878;29;20203;-50
2024/01/20 00:52:44;;;;;;;29.13;9.50;;;;;;;;;;4899374;29;20201;-51
2024/01/20 00:55:11;;;;;;;26.00;8.80;;;;;;;;;;4901817;29;20413;-50
2024/01/20 00:57:37;;;;;;;22.83;9.03;;;;;;;;;;4894300;29;20205;-53
2024/01/20 01:00:08;;;;;;;27.20;8.40;;;;;;;;;;4895837;29;20432;-54
2024/01/20 01:02:34;;;;;;;22.23;7.77;;;;;;;;;;4896160;29;20452;-51
2024/01/20 01:05:00;;;;;;;25.10;8.43;;;;;;;;;;4895143;29;20583;-53
2024/01/20 01:07:26;;;;;;;22.50;8.10;;;;;;;;;;4895565;29;20226;-49
2024/01/20 01:09:52;;;;;;;23.63;8.50;;;;;;;;;;4895634;29;20279;-50
2024/01/20 01:12:18;;;;;;;25.07;8.30;;;;;;;;;;4895616;29;20196;-49
2024/01/20 01:14:44;;;;;;;21.87;7.57;;;;;;;;;;4895474;29;20241;-54
2024/01/20 01:17:10;;;;;;;22.43;7.60;;;;;;;;;;4895044;29;20444;-51
2024/01/20 01:19:37;;;;;;;24.63;8.43;;;;;;;;;;4895630;29;20507;-50
2024/01/20 01:22:03;;;;;;;27.67;9.23;;;;;;;;;;4895720;29;20433;-51
2024/01/20 01:24:29;;;;;;;24.50;8.40;;;;;;;;;;4895305;29;20476;-50
2024/01/20 01:26:54;;;;;;;23.73;7.70;;;;;;;;;;4901782;29;20806;-52
2024/01/20 01:29:20;;;;;;;22.43;6.83;;;;;;;;;;4895475;29;20188;-50
2024/01/20 01:31:46;;;;;;;21.90;8.53;;;;;;;;;;4895259;29;20250;-49
2024/01/20 01:34:13;;;;;;;20.37;8.07;;;;;;;;;;4895408;29;20214;-52
2024/01/20 01:36:38;;;;;;;25.80;7.67;;;;;;;;;;4894505;29;20208;-52
2024/01/20 01:39:04;;;;;;;22.40;9.13;;;;;;;;;;4895199;29;20516;-52
2024/01/20 01:41:30;;;;;;;26.50;7.43;;;;;;;;;;4895333;29;20244;-50
2024/01/20 01:43:57;;;;;;;25.90;8.53;;;;;;;;;;4894793;29;20680;-49
2024/01/20 01:46:23;;;;;;;29.13;9.07;;;;;;;;;;4894124;29;20200;-50
2024/01/20 01:48:50;;;;;;;30.30;8.60;;;;;;;;;;4894601;29;20819;-49
2024/01/20 01:51:16;;;;;;;25.03;8.27;;;;;;;;;;4895137;29;20793;-51
2024/01/20 01:53:42;;;;;;;25.77;8.33;;;;;;;;;;4894649;29;20421;-50
2024/01/20 01:56:08;;;;;;;26.47;8.03;;;;;;;;;;4893900;29;20217;-49
2024/01/20 01:58:34;;;;;;;27.30;8.03;;;;;;;;;;4894745;29;20461;-50
2024/01/20 02:01:00;;;;;;;27.07;7.63;;;;;;;;;;4894654;29;20222;-49
2024/01/20 02:03:29;;;;;;;27.13;8.17;;;;;;;;;;4894665;29;20678;-50
2024/01/20 02:05:55;;;;;;;24.53;6.70;;;;;;;;;;4893819;29;20519;-49
2024/01/20 02:08:23;;;;;;;17.90;6.20;;;;;;;;;;4894659;29;20472;-48
2024/01/20 02:10:49;;;;;;;23.57;6.67;;;;;;;;;;4894158;29;20434;-50
2024/01/20 02:13:15;;;;;;;23.50;6.33;;;;;;;;;;4894603;29;20425;-50
2024/01/20 02:15:41;;;;;;;22.97;7.97;;;;;;;;;;4893868;29;20199;-50
2024/01/20 02:18:07;;;;;;;19.80;5.73;;;;;;;;;;4894758;29;20785;-49
2024/01/20 02:20:33;;;;;;;23.23;7.30;;;;;;;;;;4902413;29;20287;-50
2024/01/20 02:22:59;;;;;;;22.13;7.60;;;;;;;;;;4894340;29;20197;-49
2024/01/20 02:25:25;;;;;;;28.77;7.80;;;;;;;;;;4893641;29;20248;-48
2024/01/20 02:27:51;;;;;;;20.33;7.70;;;;;;;;;;4894316;29;20204;-53
2024/01/20 02:30:17;;;;;;;25.40;7.40;;;;;;;;;;4894753;29;20537;-51
2024/01/20 02:32:43;;;;;;;18.00;6.77;;;;;;;;;;4894267;29;20421;-53
2024/01/20 02:35:09;;;;;;;21.43;7.93;;;;;;;;;;4892550;29;20291;-51
2024/01/20 02:37:36;;;;;;;30.10;8.13;;;;;;;;;;4902789;29;20215;-54
2024/01/20 02:40:02;;;;;;;17.33;6.90;;;;;;;;;;4904642;29;20507;-52
2024/01/20 02:42:28;;;;;;;20.67;7.33;;;;;;;;;;4898022;29;20420;-51
2024/01/20 02:44:54;;;;;;;25.80;7.60;;;;;;;;;;4897282;29;20472;-51
2024/01/20 02:47:20;;;;;;;19.27;7.20;;;;;;;;;;4897948;29;20456;-50
2024/01/20 02:49:46;;;;;;;19.80;6.90;;;;;;;;;;4897831;29;20292;-51
2024/01/20 02:52:12;;;;;;;19.13;6.47;;;;;;;;;;4897888;29;20441;-52
2024/01/20 02:54:38;;;;;;;23.23;7.33;;;;;;;;;;4897641;29;20520;-51
2024/01/20 02:57:04;;;;;;;23.60;7.30;;;;;;;;;;4897230;29;20537;-50
2024/01/20 02:59:30;;;;;;;21.40;6.97;;;;;;;;;;4897792;29;20204;-51
2024/01/20 03:01:58;;;;;;;25.13;7.13;;;;;;;;;;4897686;29;20827;-52
2024/01/20 03:04:24;;;;;;;20.97;7.17;;;;;;;;;;4897860;29;20236;-54
2024/01/20 03:06:50;;;;;;;28.30;7.47;;;;;;;;;;4896810;29;20468;-52
2024/01/20 03:09:16;;;;;;;23.53;7.53;;;;;;;;;;4897622;29;20227;-51
2024/01/20 03:11:42;;;;;;;29.70;8.07;;;;;;;;;;4897587;29;20198;-51
2024/01/20 03:14:09;;;;;;;23.33;6.80;;;;;;;;;;4897588;29;20193;-52
2024/01/20 03:16:35;;;;;;;26.13;7.63;;;;;;;;;;4896904;29;20453;-51
2024/01/20 03:19:01;;;;;;;21.17;7.43;;;;;;;;;;4897442;29;20420;-51
2024/01/20 03:21:27;;;;;;;18.33;6.57;;;;;;;;;;4897394;29;20204;-51
2024/01/20 03:23:53;;;;;;;28.20;7.53;;;;;;;;;;4897237;29;20279;-52
2024/01/20 03:26:19;;;;;;;25.63;7.90;;;;;;;;;;4896748;29;20256;-53
2024/01/20 03:28:45;;;;;;;23.10;7.77;;;;;;;;;;4897391;29;20995;-52
2024/01/20 03:31:12;;;;;;;22.63;7.87;;;;;;;;;;4897302;29;20492;-53
2024/01/20 03:33:38;;;;;;;34.17;8.93;;;;;;;;;;4897005;29;20456;-53
2024/01/20 03:36:04;;;;;;;35.67;9.27;;;;;;;;;;4896465;29;20456;-53
2024/01/20 03:38:30;;;;;;;38.40;9.23;;;;;;;;;;4897358;29;20445;-52
2024/01/20 03:40:56;;;;;;;32.17;8.80;;;;;;;;;;4896809;29;20488;-52
2024/01/20 03:43:21;;;;;;;32.13;9.97;;;;;;;;;;4897096;29;20792;-53
2024/01/20 03:45:47;;;;;;;28.27;7.60;;;;;;;;;;4897703;29;20573;-50
2024/01/20 03:48:13;;;;;;;25.17;8.57;;;;;;;;;;4903169;29;20695;-54
2024/01/20 03:50:39;;;;;;;23.47;7.60;;;;;;;;;;4895755;29;20196;-53
2024/01/20 03:53:06;;;;;;;20.37;7.13;;;;;;;;;;4896949;29;20452;-53
2024/01/20 03:55:32;;;;;;;26.27;8.63;;;;;;;;;;4896584;29;20199;-54
2024/01/20 03:57:58;;;;;;;22.13;7.40;;;;;;;;;;4896702;29;21040;-51
2024/01/20 04:00:24;;;;;;;25.03;7.97;;;;;;;;;;4896859;29;20425;-53
2024/01/20 04:02:50;;;;;;;27.80;7.37;;;;;;;;;;4896409;29;20570;-51
2024/01/20 04:05:16;;;;;;;26.30;7.47;;;;;;;;;;4895936;29;20567;-53
2024/01/20 04:07:42;;;;;;;20.10;6.93;;;;;;;;;;4896030;29;20231;-52
2024/01/20 04:10:09;;;;;;;28.87;7.30;;;;;;;;;;4900536;29;20263;-51
2024/01/20 04:12:36;;;;;;;24.73;8.20;;;;;;;;;;4900183;29;20432;-51
2024/01/20 04:15:02;;;;;;;23.47;7.50;;;;;;;;;;4895707;29;20926;-54
2024/01/20 04:17:28;;;;;;;27.50;7.53;;;;;;;;;;4896296;29;20454;-52
2024/01/20 04:19:54;;;;;;;27.90;7.67;;;;;;;;;;4896350;29;20494;-50
2024/01/20 04:22:20;;;;;;;25.60;6.90;;;;;;;;;;4896270;29;20535;-52
2024/01/20 04:24:46;;;;;;;25.40;7.20;;;;;;;;;;4896194;29;20212;-51
2024/01/20 04:27:12;;;;;;;24.00;6.63;;;;;;;;;;4895600;29;20208;-52
2024/01/20 04:29:38;;;;;;;25.27;6.47;;;;;;;;;;4894669;29;20188;-54
2024/01/20 04:32:04;;;;;;;26.27;7.87;;;;;;;;;;4896314;29;20188;-51
2024/01/20 04:34:30;;;;;;;28.27;7.90;;;;;;;;;;4895939;29;20283;-55
2024/01/20 04:36:56;;;;;;;34.93;8.17;;;;;;;;;;4895250;29;20543;-55
2024/01/20 04:39:22;;;;;;;30.77;7.60;;;;;;;;;;4896086;29;20660;-53
2024/01/20 04:41:48;;;;;;;27.33;8.47;;;;;;;;;;4896118;29;20275;-51
2024/01/20 04:44:16;;;;;;;37.30;8.97;;;;;;;;;;4895841;29;20429;-51
2024/01/20 04:46:42;;;;;;;33.60;9.03;;;;;;;;;;4897438;29;20850;-52
2024/01/20 04:49:08;;;;;;;34.33;8.63;;;;;;;;;;4894484;29;20973;-52
2024/01/20 04:51:34;;;;;;;34.30;8.87;;;;;;;;;;4896141;29;20420;-50
2024/01/20 04:54:00;;;;;;;38.57;8.23;;;;;;;;;;4895807;29;20217;-52
2024/01/20 04:56:26;;;;;;;30.70;8.47;;;;;;;;;;4894961;29;20750;-51
2024/01/20 04:58:54;;;;;;;32.43;8.60;;;;;;;;;;4895603;29;20523;-51
2024/01/20 05:01:20;;;;;;;30.87;8.40;;;;;;;;;;4895508;29;20252;-52
2024/01/20 05:03:46;;;;;;;28.30;7.70;;;;;;;;;;4895321;29;20437;-54
2024/01/20 05:06:12;;;;;;;36.63;8.53;;;;;;;;;;4894759;29;20252;-52
2024/01/20 05:08:38;;;;;;;44.07;9.50;;;;;;;;;;4895285;29;20224;-52
2024/01/20 05:11:04;;;;;;;29.97;7.13;;;;;;;;;;4895320;29;20663;-55
2024/01/20 05:13:30;;;;;;;21.93;7.47;;;;;;;;;;4895455;29;20211;-51
2024/01/20 05:15:56;;;;;;;30.47;9.27;;;;;;;;;;4894541;29;20244;-50
2024/01/20 05:18:22;;;;;;;35.27;9.33;;;;;;;;;;4895117;29;20208;-53
2024/01/20 05:20:48;;;;;;;32.23;7.90;;;;;;;;;;4895590;29;20812;-52
2024/01/20 05:23:14;;;;;;;37.63;8.10;;;;;;;;;;4896311;29;20199;-52
2024/01/20 05:25:40;;;;;;;27.07;8.40;;;;;;;;;;4895153;29;20924;-52
2024/01/20 05:28:06;;;;;;;30.93;8.87;;;;;;;;;;4895897;29;20219;-53
2024/01/20 05:30:32;;;;;;;28.33;7.80;;;;;;;;;;4896038;29;20239;-53
2024/01/20 05:32:58;;;;;;;29.87;7.17;;;;;;;;;;4895981;29;21004;-51
2024/01/20 05:35:27;;;;;;;30.97;8.10;;;;;;;;;;4895436;29;20197;-51
2024/01/20 05:37:53;;;;;;;28.33;8.17;;;;;;;;;;4895766;29;20320;-55
2024/01/20 05:40:19;;;;;;;29.17;8.40;;;;;;;;;;4895287;29;20505;-56
2024/01/20 05:42:45;;;;;;;31.50;8.83;;;;;;;;;;4894744;29;20223;-51
2024/01/20 05:45:11;;;;;;;28.77;8.67;;;;;;;;;;4896674;29;20271;-54
2024/01/20 05:47:36;;;;;;;26.90;7.83;;;;;;;;;;4894859;29;20204;-55
2024/01/20 05:50:05;;;;;;;36.60;8.50;;;;;;;;;;4894768;29;20189;-52
2024/01/20 05:52:31;;;;;;;26.57;8.63;;;;;;;;;;4894666;29;20275;-52
2024/01/20 05:54:57;;;;;;;50.40;11.03;;;;;;;;;;4897034;29;20525;-52
2024/01/20 05:57:23;;;;;;;33.53;8.83;;;;;;;;;;4901450;29;21066;-51
2024/01/20 05:59:49;;;;;;;41.07;10.00;;;;;;;;;;4894601;29;20439;-55
2024/01/20 06:02:15;;;;;;;35.37;9.67;;;;;;;;;;4894795;29;20512;-50
2024/01/20 06:04:41;;;;;;;35.07;9.03;;;;;;;;;;4894330;29;20583;-51
2024/01/20 06:07:07;;;;;;;39.80;10.60;;;;;;;;;;4893969;29;20248;-53
2024/01/20 06:09:33;;;;;;;39.43;9.60;;;;;;;;;;4894739;29;20199;-54
2024/01/20 06:12:02;;;;;;;30.87;8.80;;;;;;;;;;4895211;29;20580;-50
2024/01/20 06:14:28;;;;;;;33.57;8.97;;;;;;;;;;4900739;29;20480;-55
2024/01/20 06:16:54;;;;;;;33.87;8.83;;;;;;;;;;4900155;29;20452;-53
2024/01/20 06:19:20;;;;;;;39.87;9.47;;;;;;;;;;4900957;29;20195;-50
2024/01/20 06:21:46;;;;;;;36.87;9.60;;;;;;;;;;4900724;29;20582;-52
2024/01/20 06:24:12;;;;;;;29.10;8.57;;;;;;;;;;4900816;29;20200;-50
2024/01/20 06:26:38;;;;;;;36.43;9.47;;;;;;;;;;4900039;29;20684;-49
2024/01/20 06:29:04;;;;;;;35.00;9.17;;;;;;;;;;4900700;29;20424;-50
2024/01/20 06:31:30;;;;;;;40.13;10.37;;;;;;;;;;4900993;29;20421;-50
2024/01/20 06:33:56;;;;;;;35.60;8.00;;;;;;;;;;4900541;29;20438;-50
2024/01/20 06:36:25;;;;;;;50.50;11.80;;;;;;;;;;4899979;29;20252;-50
2024/01/20 06:38:52;;;;;;;37.80;10.17;;;;;;;;;;4900971;29;20428;-49
2024/01/20 06:41:18;;;;;;;56.73;10.00;;;;;;;;;;4905948;29;20416;-50
2024/01/20 06:43:44;;;;;;;47.23;11.53;;;;;;;;;;4900417;29;20413;-53
2024/01/20 06:46:10;;;;;;;44.23;10.30;;;;;;;;;;4899816;29;21003;-50
2024/01/20 06:48:36;;;;;;;43.87;9.47;;;;;;;;;;4900400;29;20252;-51
2024/01/20 06:51:03;;;;;;;34.30;9.07;;;;;;;;;;4900707;29;20889;-50
2024/01/20 06:53:29;;;;;;;47.43;10.83;;;;;;;;;;4900571;29;20811;-52
2024/01/20 06:55:55;;;;;;;45.10;10.90;;;;;;;;;;4907604;29;20458;-51
2024/01/20 06:58:21;;;;;;;31.67;10.63;;;;;;;;;;4900377;29;20584;-53
2024/01/20 07:00:47;;;;;;;43.20;11.83;;;;;;;;;;4900535;29;20928;-49
2024/01/20 07:03:14;;;;;;;38.07;11.07;;;;;;;;;;4900541;29;20200;-52
2024/01/20 07:05:39;;;;;;;46.70;12.37;;;;;;;;;;4899520;29;20224;-51
2024/01/20 07:08:06;;;;;;;51.83;12.00;;;;;;;;;;4900260;29;20456;-50
2024/01/20 07:10:32;;;;;;;44.23;10.43;;;;;;;;;;4900396;29;20191;-51
2024/01/20 07:12:58;;;;;;;37.63;10.30;;;;;;;;;;4900222;29;20515;-54
2024/01/20 07:15:24;;;;;;;35.57;9.97;;;;;;;;;;4899991;29;20429;-50
2024/01/20 07:17:50;;;;;;;49.83;10.00;;;;;;;;;;4900133;29;21024;-52
2024/01/20 07:20:16;;;;;;;37.03;10.33;;;;;;;;;;4900350;29;20512;-50
2024/01/20 07:22:44;;;;;;;47.40;10.37;;;;;;;;;;4900151;29;20196;-50
2024/01/20 07:25:10;;;;;;;44.87;11.03;;;;;;;;;;4896812;29;20532;-50
2024/01/20 07:27:36;;;;;;;46.07;11.10;;;;;;;;;;4897027;29;20857;-51
2024/01/20 07:30:03;;;;;;;39.30;12.10;;;;;;;;;;4897001;29;20417;-51
2024/01/20 07:32:29;;;;;;;37.67;10.17;;;;;;;;;;4895826;29;20208;-50
2024/01/20 07:34:55;;;;;;;36.83;10.87;;;;;;;;;;4896593;29;20461;-50
2024/01/20 07:37:21;;;;;;;39.23;9.83;;;;;;;;;;4897111;29;21067;-56
2024/01/20 07:39:47;;;;;;;45.60;8.90;;;;;;;;;;4896951;29;20290;-51
2024/01/20 07:42:13;;;;;;;36.63;9.23;;;;;;;;;;4896966;29;20196;-51
2024/01/20 07:44:39;;;;;;;36.90;9.87;;;;;;;;;;4896737;29;20943;-51
2024/01/20 07:47:05;;;;;;;30.30;10.03;;;;;;;;;;4896525;29;20216;-51
2024/01/20 07:49:31;;;;;;;49.97;11.43;;;;;;;;;;4896877;29;20224;-51
2024/01/20 07:51:57;;;;;;;42.83;11.47;;;;;;;;;;4896614;29;20196;-52
2024/01/20 07:54:23;;;;;;;34.47;8.73;;;;;;;;;;4896460;29;20653;-52
2024/01/20 07:56:51;;;;;;;30.57;9.00;;;;;;;;;;4895312;29;20264;-52
2024/01/20 07:59:17;;;;;;;32.20;9.03;;;;;;;;;;4896372;29;20276;-51
2024/01/20 08:01:43;;;;;;;31.87;8.67;;;;;;;;;;4896419;29;20416;-53
2024/01/20 08:04:09;;;;;;;50.80;10.50;;;;;;;;;;4896298;29;20208;-50
2024/01/20 08:06:36;;;;;;;45.23;11.13;;;;;;;;;;4895472;29;20224;-52
2024/01/20 08:09:02;;;;;;;43.47;12.07;;;;;;;;;;4896118;29;20215;-51
2024/01/20 08:11:28;;;;;;;41.97;9.50;;;;;;;;;;4896133;29;20425;-50
2024/01/20 08:13:54;;;;;;;37.77;10.67;;;;;;;;;;4896067;29;20907;-49
2024/01/20 08:16:21;;;;;;;46.03;10.57;;;;;;;;;;4896341;29;20971;-52
2024/01/20 08:18:47;;;;;;;36.60;9.30;;;;;;;;;;4903302;29;20450;-53
2024/01/20 08:21:13;;;;;;;31.93;8.43;;;;;;;;;;4914958;29;20440;-51
2024/01/20 08:23:41;;;;;;;32.70;8.87;;;;;;;;;;4914864;29;20427;-50
2024/01/20 08:26:07;;;;;;;42.43;9.60;;;;;;;;;;4903512;29;20484;-51
2024/01/20 08:28:33;;;;;;;33.53;8.67;;;;;;;;;;4910647;29;20440;-51
2024/01/20 08:31:00;;;;;;;38.57;10.23;;;;;;;;;;4907251;29;20207;-53
2024/01/20 08:33:26;;;;;;;32.17;10.33;;;;;;;;;;4907450;29;20188;-52
2024/01/20 08:35:52;;;;;;;40.80;9.10;;;;;;;;;;4896874;29;20512;-51
2024/01/20 08:38:18;;;;;;;35.30;9.60;;;;;;;;;;4908154;29;20239;-51
2024/01/20 08:40:44;;;;;;;36.93;9.53;;;;;;;;;;4906325;29;20516;-51
2024/01/20 08:43:10;;;;;;;43.23;11.57;;;;;;;;;;4899869;29;20515;-54
2024/01/20 08:45:36;;;;;;;40.07;11.13;;;;;;;;;;4905906;29;20226;-53
2024/01/20 08:48:02;;;;;;;38.27;10.10;;;;;;;;;;4911376;29;20208;-50
2024/01/20 08:50:28;;;;;;;36.27;10.17;;;;;;;;;;4909247;29;20203;-51
2024/01/20 08:52:54;;;;;;;46.27;11.67;;;;;;;;;;4898634;29;20421;-52
2024/01/20 08:55:20;;;;;;;41.80;11.17;;;;;;;;;;4913860;29;20198;-52
2024/01/20 08:57:46;;;;;;;37.47;10.77;;;;;;;;;;4897652;29;20689;-54
2024/01/20 09:00:12;;;;;;;39.07;11.33;;;;;;;;;;4914314;29;20211;-50
2024/01/20 09:02:38;;;;;;;43.60;10.80;;;;;;;;;;4905168;29;20273;-51
2024/01/20 09:05:05;;;;;;;42.60;11.17;;;;;;;;;;4902283;29;20484;-50
2024/01/20 09:07:31;;;;;;;39.53;10.53;;;;;;;;;;4908775;29;20306;-51
2024/01/20 09:09:57;;;;;;;38.47;9.90;;;;;;;;;;4896794;29;20517;-51
2024/01/20 09:12:23;;;;;;;40.10;10.37;;;;;;;;;;4913935;29;20180;-51
2024/01/20 09:14:48;;;;;;;38.43;10.57;;;;;;;;;;4912642;29;20432;-51
2024/01/20 09:17:15;;;;;;;41.57;11.17;;;;;;;;;;4898938;29;20235;-51
2024/01/20 09:19:41;;;;;;;46.47;11.67;;;;;;;;;;4906026;29;20211;-52
2024/01/20 09:22:07;;;;;;;50.77;12.23;;;;;;;;;;4913666;29;20507;-52
2024/01/20 09:24:33;;;;;;;47.50;12.30;;;;;;;;;;4907043;29;20200;-51
2024/01/20 09:26:59;;;;;;;42.40;12.33;;;;;;;;;;4909483;29;20423;-50
2024/01/20 09:29:26;;;;;;;38.97;10.80;;;;;;;;;;4900491;29;20191;-50
2024/01/20 09:31:52;;;;;;;47.53;11.63;;;;;;;;;;4912278;29;20415;-49
2024/01/20 09:34:18;;;;;;;43.43;11.30;;;;;;;;;;4894574;29;20420;-51
2024/01/20 09:36:45;;;;;;;46.90;12.53;;;;;;;;;;4910312;29;20440;-52
2024/01/20 09:39:12;;;;;;;45.57;11.97;;;;;;;;;;4905895;29;20412;-53
2024/01/20 09:41:39;;;;;;;47.80;13.10;;;;;;;;;;4905880;29;20417;-50
2024/01/20 09:44:07;;;;;;;52.97;13.60;;;;;;;;;;4909974;29;20424;-49
2024/01/20 09:46:33;;;;;;;42.50;12.37;;;;;;;;;;4900328;29;20850;-50
2024/01/20 09:49:00;;;;;;;54.77;14.50;;;;;;;;;;4912613;29;20455;-50
2024/01/20 09:51:31;;;;;;;48.27;13.27;;;;;;;;;;4899879;29;20424;-53
2024/01/20 09:54:00;;;;;;;51.27;13.20;;;;;;;;;;4909065;29;20507;-51
2024/01/20 09:56:27;;;;;;;42.57;11.40;;;;;;;;;;4893684;29;20790;-50
2024/01/20 09:58:55;;;;;;;39.93;12.40;;;;;;;;;;4903667;29;20427;-50
2024/01/20 10:01:21;;;;;;;52.67;13.90;;;;;;;;;;4913311;29;20880;-50
2024/01/20 10:03:48;;;;;;;49.23;12.03;;;;;;;;;;4912263;29;20420;-54
2024/01/20 10:06:14;;;;;;;52.13;13.87;;;;;;;;;;4905396;29;20475;-50
2024/01/20 10:08:40;;;;;;;45.50;13.47;;;;;;;;;;4912980;29;20450;-50
2024/01/20 10:11:06;;;;;;;52.47;13.63;;;;;;;;;;4904948;29;20188;-50
2024/01/20 10:13:32;;;;;;;51.13;15.00;;;;;;;;;;4913051;29;20184;-51
2024/01/20 10:15:58;;;;;;;60.43;14.10;;;;;;;;;;4904328;29;20512;-51
2024/01/20 10:18:24;;;;;;;51.90;14.13;;;;;;;;;;4907108;29;20456;-50
2024/01/20 10:21:00;;;;;;;49.00;13.70;;;;;;;;;;4910720;29;20436;-49
2024/01/20 10:23:26;;;;;;;45.73;12.40;;;;;;;;;;4912852;29;20561;-50
2024/01/20 10:26:02;;;;;;;43.50;11.40;;;;;;;;;;4912085;29;20482;-51
2024/01/20 10:28:28;;;;;;;42.70;11.27;;;;;;;;;;4906792;29;20294;-51
2024/01/20 10:30:54;;;;;;;51.40;13.97;;;;;;;;;;4895324;29;20512;-53
2024/01/20 10:33:20;;;;;;;49.80;13.70;;;;;;;;;;4907977;29;20188;-51
2024/01/20 10:35:46;;;;;;;43.00;13.97;;;;;;;;;;4901194;29;20748;-50
2024/01/20 10:38:14;;;;;;;59.93;14.63;;;;;;;;;;4898242;29;20450;-54
2024/01/20 10:40:42;;;;;;;58.10;14.20;;;;;;;;;;4905123;29;20218;-50
2024/01/20 10:43:14;;;;;;;55.00;13.90;;;;;;;;;;4901455;29;20793;-49
2024/01/20 10:45:46;;;;;;;49.70;13.40;;;;;;;;;;4900978;29;20558;-51
2024/01/20 10:48:16;;;;;;;55.30;13.53;;;;;;;;;;4901763;29;20953;-51
2024/01/20 10:50:46;;;;;;;43.87;12.77;;;;;;;;;;4909580;29;20490;-53
2024/01/20 10:53:12;;;;;;;44.33;13.50;;;;;;;;;;4904984;29;20928;-52
2024/01/20 10:55:40;;;;;;;52.27;13.97;;;;;;;;;;4904335;29;20425;-50
2024/01/20 10:58:08;;;;;;;55.03;13.50;;;;;;;;;;4903275;29;21051;-50
2024/01/20 11:00:34;;;;;;;45.23;13.17;;;;;;;;;;4909607;29;20428;-49
2024/01/20 11:03:01;;;;;;;48.13;12.47;;;;;;;;;;4907720;29;20460;-53
2024/01/20 11:05:27;;;;;;;37.77;10.90;;;;;;;;;;4901956;29;20889;-50
2024/01/20 11:07:56;;;;;;;41.60;11.97;;;;;;;;;;4906149;29;20968;-51
2024/01/20 11:10:23;;;;;;;40.70;11.00;;;;;;;;;;4915892;29;20420;-52
2024/01/20 11:13:00;;;;;;;44.73;10.73;;;;;;;;;;4900304;29;20528;-53
2024/01/20 11:15:36;;;;;;;36.63;9.87;;;;;;;;;;4907772;29;20431;-51
2024/01/20 11:18:02;;;;;;;42.63;12.20;;;;;;;;;;4915714;29;20876;-49
2024/01/20 11:20:30;;;;;;;41.07;12.10;;;;;;;;;;4909995;29;20574;-48
2024/01/20 11:22:56;;;;;;;43.73;11.50;;;;;;;;;;4911587;29;20916;-52
2024/01/20 11:25:23;;;;;;;34.07;12.03;;;;;;;;;;4909131;29;20559;-50
2024/01/20 11:27:55;;;;;;;40.50;12.33;;;;;;;;;;4915549;29;20216;-49
2024/01/20 11:30:26;;;;;;;33.77;10.90;;;;;;;;;;4915724;29;20419;-51
2024/01/20 11:32:52;;;;;;;35.87;12.03;;;;;;;;;;4907793;29;20421;-52
2024/01/20 11:35:18;;;;;;;43.53;12.03;;;;;;;;;;4915451;29;20421;-51
2024/01/20 11:37:44;;;;;;;42.27;13.27;;;;;;;;;;4907906;29;20944;-51
2024/01/20 11:40:11;;;;;;;35.63;12.40;;;;;;;;;;4908280;29;20231;-49
2024/01/20 11:42:40;;;;;;;40.87;11.53;;;;;;;;;;4915303;29;20424;-49
2024/01/20 11:45:06;;;;;;;38.37;13.43;;;;;;;;;;4914811;29;20559;-51
2024/01/20 11:47:32;;;;;;;46.13;13.20;;;;;;;;;;4901290;29;20807;-51
2024/01/20 11:49:59;;;;;;;43.83;13.83;;;;;;;;;;4905148;29;20456;-53
2024/01/20 11:52:25;;;;;;;46.13;13.97;;;;;;;;;;4915522;29;20428;-55
2024/01/20 11:54:52;;;;;;;49.37;14.70;;;;;;;;;;4899872;29;20443;-54
2024/01/20 11:57:26;;;;;;;43.87;13.50;;;;;;;;;;4907053;29;20475;-50
2024/01/20 11:59:52;;;;;;;48.97;15.53;;;;;;;;;;4905939;29;20436;-49
2024/01/20 12:02:19;;;;;;;44.93;12.97;;;;;;;;;;4903954;29;20428;-49
2024/01/20 12:04:44;;;;;;;40.27;12.47;;;;;;;;;;4895920;29;20508;-50
2024/01/20 12:07:13;;;;;;;43.00;12.83;;;;;;;;;;4906435;29;20526;-51
2024/01/20 12:09:45;;;;;;;41.10;12.20;;;;;;;;;;4907426;29;20197;-49
2024/01/20 12:12:11;;;;;;;35.27;12.83;;;;;;;;;;4903489;29;20413;-49
2024/01/20 12:14:38;;;;;;;40.53;13.10;;;;;;;;;;4903071;29;20420;-50
2024/01/20 12:17:04;;;;;;;40.80;13.40;;;;;;;;;;4903949;29;20490;-51
2024/01/20 12:19:31;;;;;;;37.43;13.57;;;;;;;;;;4903694;29;20424;-49
2024/01/20 12:21:57;;;;;;;40.40;12.90;;;;;;;;;;4913273;29;20428;-50
2024/01/20 12:24:24;;;;;;;46.90;15.83;;;;;;;;;;4914424;29;20441;-51
2024/01/20 12:26:50;;;;;;;50.37;15.87;;;;;;;;;;4905171;29;20223;-49
2024/01/20 12:29:16;;;;;;;45.90;14.63;;;;;;;;;;4913579;29;20932;-51
2024/01/20 12:31:42;;;;;;;48.23;13.37;;;;;;;;;;4906923;29;20280;-50
2024/01/20 12:34:07;;;;;;;46.70;13.93;;;;;;;;;;4903347;29;20197;-51
2024/01/20 12:36:33;;;;;;;40.23;13.00;;;;;;;;;;4894889;29;20240;-52
2024/01/20 12:39:00;;;;;;;42.50;13.47;;;;;;;;;;4903248;29;20527;-50
2024/01/20 12:41:26;;;;;;;45.07;13.50;;;;;;;;;;4895503;29;20188;-51
2024/01/20 12:43:52;;;;;;;45.40;14.70;;;;;;;;;;4902800;29;20424;-52
2024/01/20 12:46:21;;;;;;;37.13;12.03;;;;;;;;;;4913574;29;20792;-49
2024/01/20 12:48:47;;;;;;;36.90;13.50;;;;;;;;;;4912839;29;20640;-53
2024/01/20 12:51:13;;;;;;;35.93;13.03;;;;;;;;;;4914338;29;20420;-50
2024/01/20 12:53:40;;;;;;;40.23;13.77;;;;;;;;;;4914181;29;20667;-49
2024/01/20 12:56:06;;;;;;;41.67;13.30;;;;;;;;;;4913521;29;20191;-50
2024/01/20 12:58:32;;;;;;;38.57;14.17;;;;;;;;;;4914006;29;20547;-54
2024/01/20 13:00:58;;;;;;;45.00;14.50;;;;;;;;;;4913889;29;20572;-50
2024/01/20 13:03:24;;;;;;;42.40;13.43;;;;;;;;;;4914073;29;20192;-50
2024/01/20 13:05:51;;;;;;;40.47;13.07;;;;;;;;;;4897410;29;20221;-50
2024/01/20 13:08:17;;;;;;;46.63;17.63;;;;;;;;;;4909525;29;20441;-50
2024/01/20 13:10:46;;;;;;;42.07;14.60;;;-6.60;99.90;;;;;;4901983;29;20435;-50
2024/01/20 13:13:12;;;;;;;40.33;13.47;;;-3.10;99.90;;;;;;4904367;29;20200;-50
2024/01/20 13:15:37;;;;;;;40.83;13.70;;;-3.10;99.90;;;;;;4904016;29;20983;-50
2024/01/20 13:18:03;;;;;;;37.13;13.73;;;-3.00;99.90;;;;;;4911993;29;20547;-50
2024/01/20 13:20:29;;;;;;;33.93;12.10;;;-2.90;99.90;;;;;;4912382;29;20278;-52
2024/01/20 13:22:54;;;;;;;44.20;14.13;;;-3.00;99.90;;;;;;4905804;29;20227;-51
2024/01/20 13:25:20;;;;;;;34.77;12.40;;;-3.00;99.90;;;;;;4905110;29;20219;-51
2024/01/20 13:27:45;;;;;;;38.43;13.30;;;-3.00;99.90;;;;;;4905160;29;20237;-54
2024/01/20 13:30:12;;;;;;;40.37;14.20;;;-2.90;99.90;;;;;;4902554;29;20247;-49
2024/01/20 13:32:37;;;;;;;31.47;11.53;;;-2.80;99.90;;;;;;4909515;29;20739;-48
2024/01/20 13:35:04;;;;;;;33.77;12.10;;;-2.80;99.90;;;;;;4897241;29;20516;-51
2024/01/20 13:37:29;;;;;;;36.77;13.33;;;-2.70;99.90;;;;;;4905973;29;20682;-46
2024/01/20 13:39:55;;;;;;;35.43;12.80;;;-2.70;99.90;;;;;;4903674;29;20436;-52
2024/01/20 13:42:21;;;;;;;44.10;13.97;;;-2.60;99.90;;;;;;4900709;29;20664;-46
2024/01/20 13:44:46;;;;;;;36.43;13.77;;;-2.50;99.90;;;;;;4902350;29;20275;-46
2024/01/20 13:47:12;;;;;;;40.27;13.70;;;-2.60;99.90;;;;;;4913120;29;20223;-47
2024/01/20 13:49:37;;;;;;;39.17;14.20;;;-2.70;99.90;;;;;;4905376;29;20595;-47
2024/01/20 13:52:03;;;;;;;36.03;12.90;;;-2.60;99.90;;;;;;4905234;29;20600;-47
2024/01/20 13:54:29;;;;;;;33.87;12.77;;;-2.60;99.90;;;;;;4899546;29;20680;-50
2024/01/20 13:57:00;;;;;;;35.37;13.90;;;-2.50;99.90;;;;;;4902509;29;20597;-50
2024/01/20 13:59:26;;;;;;;39.10;13.33;;;-2.50;99.90;;;;;;4913031;29;20200;-47
2024/01/20 14:01:55;;;;;;;37.50;14.70;;;-2.40;99.90;;;;;;4909895;29;20428;-48
2024/01/20 14:04:21;;;;;;;37.10;13.70;;;-2.40;99.90;;;;;;4898841;29;20424;-50
2024/01/20 14:06:46;;;;;;;38.97;13.97;;;-2.40;99.90;;;;;;4895887;29;20964;-50
2024/01/20 14:09:13;;;;;;;33.67;12.17;;;-2.50;99.90;;;;;;4897777;29;20242;-52